Accueil
METAR-TAF:

METAR-TAF

Aéroports :

Norwich, Angleterre

Aéroport international de Norwich

latitude: 52-38N, longitude: 001-18E, altitude: 14 m

Observation

Le bulletin a été fait il y a 38 minutes, à 00:20 UTC
Vent 14 kt de ouest/sud-ouest, variant entre sud/sud-ouest et ouest
Température 12°C
Humidité 76%
Pression 1012 hPa
Visibilité 10 km ou plus

METAR: EGSH 240020Z AUTO 24014KT 210V280 9999 BKN022/// 12/08 Q1012

Heure: 01:58 (00:58 UTC)

Prévision

Le bulletin a été fait il y a 5 heures et 1 minutes, à 19:57 UTC
Prévision valable du 23 à 21 UTC au 23 à 24 UTC
Vent 12 kt de ouest/sud-ouest
Visibilité 10 km ou plus
Quelques nuages à une hauteur de 2000 ft
Probabilité 30% :
Temporairement
du 23 à 21 UTC au 23 à 24 UTC
Visibilité: 7000 m
Nuages fragmentés à une hauteur de 1000 ft
pluie

TAF: EGSH 231957Z 2321/2324 25012KT 9999 FEW020 PROB30 TEMPO 2321/2324 7000 RA BKN010

Observations et prévisions météorologiques de plus de 4000 aéroports (messages METAR et TAF).

Les stations disponibles sont représentées par des disques jaunes et rouges sur la carte.

Passer la souris dessus pour voir le nom de la station.

Cliquer dessus pour voir les observations et prévisions météorologiques.

Pour changer de carte: cliquez sur les boutons verts avec une croix noire pour zoomer, sur le bouton vert avec un tiret pour effectuer un zoom arrière, ou sur les flèches vertes pour les cartes adjacentes.


METAR-TAF: